createdAt,value
2018-02-02T00:00:23.094Z,99325
2018-02-02T00:02:50.330Z,99331
2018-02-02T00:05:17.589Z,99327
2018-02-02T00:07:44.817Z,99332
2018-02-02T00:10:12.056Z,99329
2018-02-02T00:12:39.289Z,99327
2018-02-02T00:15:06.518Z,99329
2018-02-02T00:17:33.785Z,99325
2018-02-02T00:20:01.027Z,99324
2018-02-02T00:22:28.257Z,99325
2018-02-02T00:24:55.490Z,99329
2018-02-02T00:27:22.754Z,99332
2018-02-02T00:29:49.978Z,99336
2018-02-02T00:32:17.211Z,99332
2018-02-02T00:34:44.452Z,99336
2018-02-02T00:37:11.682Z,99335
2018-02-02T00:39:38.933Z,99337
2018-02-02T00:42:06.164Z,99335
2018-02-02T00:44:33.410Z,99340
2018-02-02T00:47:00.638Z,99337
2018-02-02T00:49:27.871Z,99343
2018-02-02T00:52:03.810Z,99330
2018-02-02T00:54:31.374Z,99335
2018-02-02T00:56:58.597Z,99332
2018-02-02T00:59:25.833Z,99336
2018-02-02T01:01:53.059Z,99334
2018-02-02T01:04:20.372Z,99334
2018-02-02T01:06:47.629Z,99333
2018-02-02T01:09:14.858Z,99338
2018-02-02T01:11:42.093Z,99346
2018-02-02T01:14:09.322Z,99342
2018-02-02T01:16:36.554Z,99340
2018-02-02T01:19:03.990Z,99340
2018-02-02T01:21:31.230Z,99344
2018-02-02T01:23:58.457Z,99346
2018-02-02T01:26:25.695Z,99344
2018-02-02T01:28:52.929Z,99346
2018-02-02T01:31:20.249Z,99351
2018-02-02T01:33:47.486Z,99349
2018-02-02T01:36:14.718Z,99353
2018-02-02T01:38:41.954Z,99354
2018-02-02T01:41:09.182Z,99355
2018-02-02T01:43:36.457Z,99357
2018-02-02T01:46:03.686Z,99353
2018-02-02T01:48:30.924Z,99351
2018-02-02T01:50:58.255Z,99354
2018-02-02T01:53:25.478Z,99357
2018-02-02T01:55:52.718Z,99359
2018-02-02T01:58:19.949Z,99357
2018-02-02T02:00:47.186Z,99350
2018-02-02T02:03:14.421Z,99348
2018-02-02T02:05:41.659Z,99343
2018-02-02T02:08:08.909Z,99341
2018-02-02T02:10:36.142Z,99344
2018-02-02T02:13:03.378Z,99344
2018-02-02T02:15:30.616Z,99345
2018-02-02T02:17:57.846Z,99343
2018-02-02T02:20:25.098Z,99348
2018-02-02T02:22:52.325Z,99350
2018-02-02T02:25:19.559Z,99343
2018-02-02T02:27:46.802Z,99347
2018-02-02T02:30:14.032Z,99340
2018-02-02T02:32:41.294Z,99344
2018-02-02T02:35:08.519Z,99340
2018-02-02T02:37:35.755Z,99342
2018-02-02T02:40:03.015Z,99345
2018-02-02T02:42:30.447Z,99344
2018-02-02T02:44:57.678Z,99343
2018-02-02T02:47:24.932Z,99344
2018-02-02T02:49:52.163Z,99345
2018-02-02T02:52:19.390Z,99347
2018-02-02T02:54:46.654Z,99345
2018-02-02T02:57:13.885Z,99348
2018-02-02T02:59:41.128Z,99347
2018-02-02T03:02:08.349Z,99354
2018-02-02T03:04:35.590Z,99348
2018-02-02T03:07:03.035Z,99351
2018-02-02T03:09:30.343Z,99345
2018-02-02T03:11:57.582Z,99349
2018-02-02T03:14:24.813Z,99346
2018-02-02T03:16:52.060Z,99351
2018-02-02T03:19:19.318Z,99353
2018-02-02T03:21:46.548Z,99351
2018-02-02T03:24:13.777Z,99352
2018-02-02T03:26:41.015Z,99353
2018-02-02T03:29:08.237Z,99346
2018-02-02T03:31:35.506Z,99348
2018-02-02T03:34:02.743Z,99347
2018-02-02T03:36:29.969Z,99348
2018-02-02T03:38:57.209Z,99346
2018-02-02T03:41:24.429Z,99345
2018-02-02T03:43:52.570Z,99345
2018-02-02T03:46:19.797Z,99342
2018-02-02T03:48:47.031Z,99345
2018-02-02T03:51:14.266Z,99344
2018-02-02T03:53:41.504Z,99345
2018-02-02T03:56:08.759Z,99342
2018-02-02T03:58:35.990Z,99350
2018-02-02T04:01:03.228Z,99356
2018-02-02T04:03:30.467Z,99355
2018-02-02T04:05:57.694Z,99363
2018-02-02T04:08:24.954Z,99367
2018-02-02T04:10:52.176Z,99361
2018-02-02T04:13:19.410Z,99364
2018-02-02T04:15:46.641Z,99367
2018-02-02T04:18:13.874Z,99367
2018-02-02T04:20:41.130Z,99373
2018-02-02T04:23:08.399Z,99372
2018-02-02T04:25:35.630Z,99374
2018-02-02T04:28:03.209Z,99372
2018-02-02T04:30:30.474Z,99374
2018-02-02T04:32:57.702Z,99372
2018-02-02T04:38:22.983Z,99373
2018-02-02T04:40:50.394Z,99377
2018-02-02T04:43:17.625Z,99380
2018-02-02T04:45:44.854Z,99384
2018-02-02T04:48:12.078Z,99383
2018-02-02T04:50:39.316Z,99381
2018-02-02T04:53:06.582Z,99376
2018-02-02T04:55:33.814Z,99379
2018-02-02T04:58:01.039Z,99380
2018-02-02T05:00:28.272Z,99379
2018-02-02T05:02:55.502Z,99381
2018-02-02T05:05:23.025Z,99379
2018-02-02T05:07:50.261Z,99377
2018-02-02T05:10:17.505Z,99374
2018-02-02T05:12:44.739Z,99376
2018-02-02T05:15:11.967Z,99373
2018-02-02T05:17:39.230Z,99369
2018-02-02T05:20:06.462Z,99370
2018-02-02T05:22:33.781Z,99375
2018-02-02T05:25:01.015Z,99385
2018-02-02T05:27:28.242Z,99376
2018-02-02T05:29:55.492Z,99381
2018-02-02T05:32:22.722Z,99379
2018-02-02T05:34:49.981Z,99376
2018-02-02T05:37:17.218Z,99383
2018-02-02T05:39:44.454Z,99378
2018-02-02T05:42:11.725Z,99378
2018-02-02T05:44:38.952Z,99377
2018-02-02T05:47:06.182Z,99381
2018-02-02T05:49:33.411Z,99385
2018-02-02T05:52:00.650Z,99385
2018-02-02T05:54:27.910Z,99387
2018-02-02T05:56:55.146Z,99387
2018-02-02T05:59:22.380Z,99385
2018-02-02T06:01:49.601Z,99389
2018-02-02T06:04:16.854Z,99383
2018-02-02T06:06:44.302Z,99385
2018-02-02T06:09:11.546Z,99386
2018-02-02T06:11:38.784Z,99385
2018-02-02T06:14:06.014Z,99384
2018-02-02T06:16:33.254Z,99383
2018-02-02T06:19:00.497Z,99390
2018-02-02T06:21:27.728Z,99389
2018-02-02T06:23:54.963Z,99394
2018-02-02T06:26:22.189Z,99397
2018-02-02T06:28:49.430Z,99399
2018-02-02T06:31:16.697Z,99397
2018-02-02T06:33:43.929Z,99401
2018-02-02T06:36:11.161Z,99402
2018-02-02T06:38:38.400Z,99403
2018-02-02T06:41:05.633Z,99405
2018-02-02T06:43:32.912Z,99409
2018-02-02T06:46:00.142Z,99408
2018-02-02T06:51:01.203Z,99412
2018-02-02T06:53:28.434Z,99419
2018-02-02T06:55:55.795Z,99421
2018-02-02T06:58:23.026Z,99423
2018-02-02T07:00:50.262Z,99428
2018-02-02T07:03:17.490Z,99428
2018-02-02T07:05:44.730Z,99431
2018-02-02T07:08:11.981Z,99431
2018-02-02T07:10:39.218Z,99434
2018-02-02T07:13:06.629Z,99435
2018-02-02T07:15:33.862Z,99440
2018-02-02T07:18:01.108Z,99446
2018-02-02T07:20:28.342Z,99446
2018-02-02T07:22:55.570Z,99451
2018-02-02T07:25:22.804Z,99451
2018-02-02T07:27:50.038Z,99452
2018-02-02T07:30:17.274Z,99452
2018-02-02T07:32:44.518Z,99451
2018-02-02T07:35:11.757Z,99456
2018-02-02T07:37:39.002Z,99460
2018-02-02T07:40:06.274Z,99463
2018-02-02T07:42:34.842Z,99465
2018-02-02T07:45:02.802Z,99468
2018-02-02T07:47:30.481Z,99464
2018-02-02T07:49:57.850Z,99471
2018-02-02T07:52:25.371Z,99471
2018-02-02T07:54:52.609Z,99471
2018-02-02T07:57:19.857Z,99473
2018-02-02T07:59:47.122Z,99475
2018-02-02T08:02:14.368Z,99474
2018-02-02T08:04:41.602Z,99478
2018-02-02T08:07:08.843Z,99479
2018-02-02T08:09:36.082Z,99480
2018-02-02T08:12:03.361Z,99484
2018-02-02T08:14:30.609Z,99486
2018-02-02T08:16:57.850Z,99486
2018-02-02T08:19:25.511Z,99491
2018-02-02T08:21:53.038Z,99492
2018-02-02T08:24:20.362Z,99497
2018-02-02T08:26:47.689Z,99500
2018-02-02T08:29:14.954Z,99506
2018-02-02T08:31:42.194Z,99502
2018-02-02T08:34:09.432Z,99499
2018-02-02T08:36:36.965Z,99504
2018-02-02T08:39:04.525Z,99505
2018-02-02T08:41:32.649Z,99506
2018-02-02T08:44:00.086Z,99509
2018-02-02T08:46:27.819Z,99509
2018-02-02T08:48:55.106Z,99520
2018-02-02T08:51:22.342Z,99519
2018-02-02T08:53:49.677Z,99522
2018-02-02T08:56:16.949Z,99520
2018-02-02T08:58:44.438Z,99521
2018-02-02T09:01:17.289Z,99528
2018-02-02T09:03:44.723Z,99524
2018-02-02T09:06:12.077Z,99526
2018-02-02T09:08:39.355Z,99526
2018-02-02T09:11:06.582Z,99527
2018-02-02T09:13:33.817Z,99530
2018-02-02T09:16:01.047Z,99526
2018-02-02T09:18:28.506Z,99519
2018-02-02T09:20:55.747Z,99523
2018-02-02T09:23:22.983Z,99529
2018-02-02T09:25:50.207Z,99535
2018-02-02T09:28:18.242Z,99542
2018-02-02T09:30:45.503Z,99543
2018-02-02T09:33:12.729Z,99549
2018-02-02T09:35:39.954Z,99548
2018-02-02T09:38:07.190Z,99551
2018-02-02T09:40:34.498Z,99554
2018-02-02T09:43:02.117Z,99552
2018-02-02T09:45:29.353Z,99553
2018-02-02T09:47:56.588Z,99555
2018-02-02T09:50:23.822Z,99557
2018-02-02T09:52:51.054Z,99557
2018-02-02T09:55:18.302Z,99558
2018-02-02T09:57:45.534Z,99566
2018-02-02T10:00:12.758Z,99565
2018-02-02T10:02:40.014Z,99567
2018-02-02T10:05:07.244Z,99567
2018-02-02T10:07:34.474Z,99567
2018-02-02T10:10:01.719Z,99572
2018-02-02T10:12:29.054Z,99563
2018-02-02T10:14:56.290Z,99576
2018-02-02T10:17:23.518Z,99575
2018-02-02T10:19:50.774Z,99577
2018-02-02T10:22:18.026Z,99577
2018-02-02T10:24:45.262Z,99578
2018-02-02T10:27:12.498Z,99573
2018-02-02T10:29:39.735Z,99573
2018-02-02T10:32:06.978Z,99574
2018-02-02T10:34:34.230Z,99579
2018-02-02T10:37:01.758Z,99587
2018-02-02T10:39:29.029Z,99583
2018-02-02T10:41:56.260Z,99585
2018-02-02T10:44:23.842Z,99585
2018-02-02T10:46:51.079Z,99588
2018-02-02T10:49:18.306Z,99589
2018-02-02T10:51:45.525Z,99594
2018-02-02T10:54:12.759Z,99594
2018-02-02T10:56:40.014Z,99589
2018-02-02T10:59:07.233Z,99590
2018-02-02T11:01:36.298Z,99589
2018-02-02T11:04:09.014Z,99589
2018-02-02T11:06:36.244Z,99594
2018-02-02T11:09:03.625Z,99586
2018-02-02T11:11:30.858Z,99586
2018-02-02T11:13:58.094Z,99588
2018-02-02T11:16:25.318Z,99588
2018-02-02T11:18:52.546Z,99583
2018-02-02T11:21:19.779Z,99582
2018-02-02T11:23:46.998Z,99586
2018-02-02T11:26:14.230Z,99585
2018-02-02T11:28:41.482Z,99585
2018-02-02T11:31:08.706Z,99587
2018-02-02T11:33:35.929Z,99582
2018-02-02T11:36:03.198Z,99578
2018-02-02T11:38:30.430Z,99579
2018-02-02T11:40:57.686Z,99574
2018-02-02T11:43:24.914Z,99574
2018-02-02T11:45:52.187Z,99573
2018-02-02T11:48:19.418Z,99580
2018-02-02T11:50:46.670Z,99581
2018-02-02T11:53:14.105Z,99579
2018-02-02T11:55:41.347Z,99583
2018-02-02T11:58:08.678Z,99581
2018-02-02T12:00:35.911Z,99585
2018-02-02T12:03:03.151Z,99589
2018-02-02T12:05:30.405Z,99587
2018-02-02T12:07:57.639Z,99591
2018-02-02T12:10:24.870Z,99592
2018-02-02T12:12:52.102Z,99596
2018-02-02T12:15:19.333Z,99596
2018-02-02T12:17:46.566Z,99590
2018-02-02T12:20:13.806Z,99595
2018-02-02T12:25:53.506Z,99599
2018-02-02T12:28:38.770Z,99602
2018-02-02T12:31:11.694Z,99602
2018-02-02T12:33:42.521Z,99601
2018-02-02T12:36:12.241Z,99598
2018-02-02T12:38:39.507Z,99601
2018-02-02T12:41:06.738Z,99604
2018-02-02T12:43:33.976Z,99613
2018-02-02T12:46:01.218Z,99609
2018-02-02T12:48:40.405Z,99612
2018-02-02T12:51:15.585Z,99613
2018-02-02T12:53:42.818Z,99617
2018-02-02T12:56:10.709Z,99616
2018-02-02T12:58:38.022Z,99618
2018-02-02T13:01:05.525Z,99619
2018-02-02T13:03:33.072Z,99617
2018-02-02T13:06:00.392Z,99616
2018-02-02T13:08:27.674Z,99621
2018-02-02T13:10:54.914Z,99619
2018-02-02T13:13:22.162Z,99618
2018-02-02T13:15:49.406Z,99622
2018-02-02T13:18:16.906Z,99625
2018-02-02T13:20:44.382Z,99623
2018-02-02T13:23:11.840Z,99629
2018-02-02T13:25:39.218Z,99630
2018-02-02T13:28:06.467Z,99629
2018-02-02T13:30:33.730Z,99628
2018-02-02T13:33:00.958Z,99632
2018-02-02T13:35:28.197Z,99635
2018-02-02T13:37:55.421Z,99638
2018-02-02T13:40:22.652Z,99634
2018-02-02T13:42:49.913Z,99636
2018-02-02T13:45:17.407Z,99639
2018-02-02T13:47:44.625Z,99639
2018-02-02T13:50:11.858Z,99641
2018-02-02T13:52:39.096Z,99637
2018-02-02T13:55:06.327Z,99641
2018-02-02T13:57:33.554Z,99642
2018-02-02T14:00:00.795Z,99640
2018-02-02T14:02:28.850Z,99643
2018-02-02T14:04:56.950Z,99639
2018-02-02T14:07:24.277Z,99642
2018-02-02T14:09:51.506Z,99640
2018-02-02T14:12:18.784Z,99645
2018-02-02T14:14:46.006Z,99642
2018-02-02T14:17:13.519Z,99645
2018-02-02T14:19:40.754Z,99642
2018-02-02T14:22:07.983Z,99642
2018-02-02T14:24:35.205Z,99648
2018-02-02T14:27:02.444Z,99652
2018-02-02T14:29:29.930Z,99655
2018-02-02T14:31:57.163Z,99661
2018-02-02T14:34:24.390Z,99662
2018-02-02T14:36:51.617Z,99657
2018-02-02T14:39:18.856Z,99663
2018-02-02T14:41:46.205Z,99667
2018-02-02T14:44:13.442Z,99674
2018-02-02T14:46:40.678Z,99683
2018-02-02T14:49:07.914Z,99682
2018-02-02T14:51:35.142Z,99679
2018-02-02T14:54:02.891Z,99682
2018-02-02T14:56:30.128Z,99682
2018-02-02T14:58:57.359Z,99682
2018-02-02T15:01:24.589Z,99683
2018-02-02T15:03:51.818Z,99687
2018-02-02T15:06:19.338Z,99686
2018-02-02T15:08:46.583Z,99695
2018-02-02T15:11:13.809Z,99699
2018-02-02T15:13:41.043Z,99705
2018-02-02T15:16:08.277Z,99711
2018-02-02T15:18:35.506Z,99708
2018-02-02T15:21:02.767Z,99705
2018-02-02T15:23:30.980Z,99710
2018-02-02T15:25:58.286Z,99708
2018-02-02T15:28:25.518Z,99707
2018-02-02T15:30:52.759Z,99714
2018-02-02T15:33:19.998Z,99716
2018-02-02T15:35:47.250Z,99717
2018-02-02T15:38:14.483Z,99720
2018-02-02T15:40:43.501Z,99720
2018-02-02T15:43:10.789Z,99720
2018-02-02T15:45:38.054Z,99721
2018-02-02T15:48:05.290Z,99721
2018-02-02T15:50:32.526Z,99720
2018-02-02T15:52:59.758Z,99723
2018-02-02T15:55:26.978Z,99722
2018-02-02T15:57:54.206Z,99727
2018-02-02T16:00:21.433Z,99724
2018-02-02T16:02:48.667Z,99726
2018-02-02T16:05:15.911Z,99724
2018-02-02T16:07:43.144Z,99728
2018-02-02T16:10:10.378Z,99718
2018-02-02T16:12:37.618Z,99734
2018-02-02T16:15:04.949Z,99733
2018-02-02T16:17:32.187Z,99733
2018-02-02T16:19:59.421Z,99733
2018-02-02T16:22:26.662Z,99733
2018-02-02T16:24:53.898Z,99733
2018-02-02T16:27:21.139Z,99736
2018-02-02T16:29:48.370Z,99739
2018-02-02T16:32:15.610Z,99740
2018-02-02T16:34:43.186Z,99740
2018-02-02T16:37:10.423Z,99739
2018-02-02T16:39:37.646Z,99742
2018-02-02T16:42:04.894Z,99742
2018-02-02T16:44:32.134Z,99744
2018-02-02T16:46:59.478Z,99753
2018-02-02T16:49:26.707Z,99755
2018-02-02T16:51:54.030Z,99763
2018-02-02T16:54:21.257Z,99763
2018-02-02T16:56:48.491Z,99773
2018-02-02T16:59:15.737Z,99781
2018-02-02T17:01:42.970Z,99785
2018-02-02T17:04:10.202Z,99776
2018-02-02T17:06:37.438Z,99778
2018-02-02T17:09:04.663Z,99771
2018-02-02T17:11:31.915Z,99775
2018-02-02T17:13:59.152Z,99780
2018-02-02T17:16:26.389Z,99784
2018-02-02T17:18:53.618Z,99779
2018-02-02T17:21:20.855Z,99787
2018-02-02T17:23:48.432Z,99778
2018-02-02T17:26:15.662Z,99781
2018-02-02T17:28:42.977Z,99783
2018-02-02T17:31:10.162Z,99784
2018-02-02T17:33:37.397Z,99785
2018-02-02T17:36:04.640Z,99787
2018-02-02T17:38:31.869Z,99796
2018-02-02T17:40:59.480Z,99805
2018-02-02T17:43:26.746Z,99806
2018-02-02T17:45:53.994Z,99812
2018-02-02T17:48:21.269Z,99810
2018-02-02T17:50:48.502Z,99811
2018-02-02T17:53:15.738Z,99808
2018-02-02T17:55:43.107Z,99809
2018-02-02T17:58:10.379Z,99815
2018-02-02T18:00:39.352Z,99816
2018-02-02T18:03:21.463Z,99819
2018-02-02T18:05:48.714Z,99819
2018-02-02T18:08:15.942Z,99819
2018-02-02T18:10:43.166Z,99819
2018-02-02T18:13:10.406Z,99820
2018-02-02T18:15:37.634Z,99820
2018-02-02T18:18:04.871Z,99819
2018-02-02T18:20:32.099Z,99823
2018-02-02T18:22:59.568Z,99820
2018-02-02T18:25:26.802Z,99825
2018-02-02T18:27:54.035Z,99832
2018-02-02T18:30:21.274Z,99828
2018-02-02T18:32:48.506Z,99827
2018-02-02T18:35:16.027Z,99831
2018-02-02T18:37:43.260Z,99837
2018-02-02T18:40:10.535Z,99837
2018-02-02T18:42:37.955Z,99837
2018-02-02T18:45:05.193Z,99838
2018-02-02T18:47:32.648Z,99836
2018-02-02T18:49:59.886Z,99833
2018-02-02T18:52:27.132Z,99835
2018-02-02T18:54:54.346Z,99833
2018-02-02T18:57:21.575Z,99833
2018-02-02T18:59:48.821Z,99830
2018-02-02T19:02:16.050Z,99833
2018-02-02T19:04:43.290Z,99838
2018-02-02T19:07:10.526Z,99837
2018-02-02T19:09:37.761Z,99840
2018-02-02T19:12:05.013Z,99838
2018-02-02T19:14:32.252Z,99840
2018-02-02T19:16:59.483Z,99840
2018-02-02T19:19:26.718Z,99840
2018-02-02T19:21:53.946Z,99840
2018-02-02T19:24:21.198Z,99842
2018-02-02T19:26:48.434Z,99843
2018-02-02T19:29:15.673Z,99852
2018-02-02T19:31:42.902Z,99850
2018-02-02T19:34:10.155Z,99859
2018-02-02T19:36:37.400Z,99861
2018-02-02T19:39:04.634Z,99858
2018-02-02T19:41:31.907Z,99869
2018-02-02T19:43:59.144Z,99870
2018-02-02T19:46:26.374Z,99875
2018-02-02T19:48:53.612Z,99879
2018-02-02T19:51:20.851Z,99877
2018-02-02T19:53:48.082Z,99878
2018-02-02T19:56:15.317Z,99883
2018-02-02T19:58:42.545Z,99885
2018-02-02T20:01:09.782Z,99886
2018-02-02T20:03:37.314Z,99883
2018-02-02T20:06:04.542Z,99890
2018-02-02T20:08:31.859Z,99887
2018-02-02T20:10:59.079Z,99894
2018-02-02T20:13:26.311Z,99895
2018-02-02T20:15:53.579Z,99898
2018-02-02T20:18:20.814Z,99906
2018-02-02T20:20:48.050Z,99909
2018-02-02T20:23:15.288Z,99912
2018-02-02T20:25:42.522Z,99915
2018-02-02T20:28:09.782Z,99915
2018-02-02T20:30:37.011Z,99918
2018-02-02T20:33:04.239Z,99925
2018-02-02T20:35:31.483Z,99924
2018-02-02T20:37:58.714Z,99926
2018-02-02T20:40:26.002Z,99926
2018-02-02T20:42:53.234Z,99928
2018-02-02T20:45:20.466Z,99929
2018-02-02T20:47:47.703Z,99932
2018-02-02T20:50:14.932Z,99928
2018-02-02T20:52:42.194Z,99929
2018-02-02T20:55:09.427Z,99931
2018-02-02T20:57:36.654Z,99927
2018-02-02T21:00:03.898Z,99923
2018-02-02T21:02:31.139Z,99929
2018-02-02T21:04:58.410Z,99933
2018-02-02T21:07:25.644Z,99935
2018-02-02T21:09:52.874Z,99938
2018-02-02T21:12:20.107Z,99934
2018-02-02T21:14:47.334Z,99935
2018-02-02T21:17:14.762Z,99936
2018-02-02T21:19:42.045Z,99930
2018-02-02T21:22:09.222Z,99927
2018-02-02T21:24:36.455Z,99927
2018-02-02T21:27:03.678Z,99935
2018-02-02T21:29:30.956Z,99937
2018-02-02T21:31:58.184Z,99942
2018-02-02T21:34:25.419Z,99938
2018-02-02T21:36:52.646Z,99939
2018-02-02T21:39:19.875Z,99942
2018-02-02T21:41:47.119Z,99934
2018-02-02T21:44:14.350Z,99947
2018-02-02T21:46:41.591Z,99952
2018-02-02T21:49:08.818Z,99952
2018-02-02T21:51:36.046Z,99957
2018-02-02T21:54:03.282Z,99964
2018-02-02T21:56:30.554Z,99968
2018-02-02T21:58:57.790Z,99963
2018-02-02T22:01:26.226Z,99969
2018-02-02T22:03:54.821Z,99970
2018-02-02T22:06:23.610Z,99973
2018-02-02T22:08:51.941Z,99972
2018-02-02T22:11:20.439Z,99979
2018-02-02T22:13:47.730Z,99985
2018-02-02T22:16:14.966Z,99981
2018-02-02T22:18:42.217Z,99984
2018-02-02T22:21:09.486Z,99990
2018-02-02T22:23:36.722Z,99987
2018-02-02T22:26:03.966Z,99996
2018-02-02T22:28:31.206Z,99996
2018-02-02T22:30:58.511Z,100001
2018-02-02T22:33:25.867Z,100002
2018-02-02T22:35:53.211Z,100002
2018-02-02T22:38:20.503Z,100012
2018-02-02T22:40:47.737Z,100009
2018-02-02T22:43:15.030Z,100007
2018-02-02T22:45:42.503Z,100017
2018-02-02T22:48:09.746Z,100021
2018-02-02T22:50:37.142Z,100022
2018-02-02T22:53:04.399Z,100019
2018-02-02T22:55:31.909Z,100022
2018-02-02T22:57:59.389Z,100020
2018-02-02T23:00:26.826Z,100022
2018-02-02T23:02:54.112Z,100025
2018-02-02T23:05:21.474Z,100025
2018-02-02T23:07:49.030Z,100022
2018-02-02T23:10:16.321Z,100027
2018-02-02T23:12:43.554Z,100027
2018-02-02T23:15:11.863Z,100036
2018-02-02T23:17:39.114Z,100033
2018-02-02T23:20:06.366Z,100039
2018-02-02T23:22:33.943Z,100044
2018-02-02T23:25:01.447Z,100039
2018-02-02T23:27:28.686Z,100043
2018-02-02T23:29:55.942Z,100042
2018-02-02T23:32:23.178Z,100045
2018-02-02T23:34:50.826Z,100051
2018-02-02T23:37:18.166Z,100050
2018-02-02T23:42:19.373Z,100043
2018-02-02T23:44:46.875Z,100050
2018-02-02T23:47:14.334Z,100050
2018-02-02T23:49:41.784Z,100051
2018-02-02T23:52:09.192Z,100050
2018-02-02T23:54:36.483Z,100052
2018-02-02T23:57:03.814Z,100050
2018-02-02T23:59:31.132Z,100054
